Medford, WI

4:40 AM CST on February 25, 2017 (GMT -0600)
Taylor County

Weather History for KMDZ - June, 2012

Change the Weather History Date:

Monday, June 11, 2012

  Actual Average Record
Temperature  
Mean Temperature 68 °F -  
Max Temperature 80 °F 73 °F 88 °F (1949)
Min Temperature 57 °F 51 °F 35 °F (1963)
Cooling Degree Days 4    
Growing Degree Days 18 (Base 50)    
Moisture  
Dew Point 59 °F    
Average Humidity 68    
Maximum Humidity 94    
Minimum Humidity 39    
Precipitation  
Precipitation 0.00 in - - ()
Sea Level Pressure  
Sea Level Pressure 29.77 in    
Wind  
Wind Speed 13 mph (SW)    
Max Wind Speed 23 mph    
Max Gust Speed 33 mph    
Visibility 10 miles    
Events Rain    
Averages and records for this station are not official NWS values.
T = Trace of Precipitation, MM = Missing Value Source: NWS Daily Summary

Daily Weather History Graph

Daily Weather History Graph

Search for Another Location

Airport or City:

Trip Planner

Search our weather history database for the weather conditions in past years. The results will help you decide how hot, cold, wet, or windy it might be!

Date:

Astronomy

Jun. 11, 2012 Rise Set
Actual Time 5:13 AM CDT 8:48 PM CDT
Civil Twilight 4:36 AM CDT 9:25 PM CDT
Nautical Twilight 3:46 AM CDT 10:15 PM CDT
Astronomical Twilight 2:41 AM CDT 11:20 PM CDT
Moon 12:50 AM CDT (6/11) 1:22 PM CDT (6/11)
Length of Visible Light 16h 49m
Length of Day
15h 34m
Waning Gibbous, 47% of the Moon is Illuminated
Jun 11
Waning Gibbous
Jun 19
New
Jun 26
First Quarter
Jul 3
Full
Jul 10
Last Quarter

Hourly Weather History & Observations

Time (CDT) Temp. Heat Index Dew Point Humidity Pressure Visibility Wind Dir Wind Speed Gust Speed Precip Events Conditions
12:15 AM 73.4 °F - 60.8 °F 65% 29.76 in 10.0 mi South 13.8 mph - N/A   Scattered Clouds
12:35 AM 73.4 °F - 60.8 °F 65% 29.76 in 10.0 mi South 11.5 mph 17.3 mph N/A   Mostly Cloudy
12:55 AM 73.4 °F - 60.8 °F 65% 29.75 in 10.0 mi South 12.7 mph 18.4 mph N/A   Overcast
1:15 AM 73.4 °F - 62.6 °F 69% 29.75 in 10.0 mi South 12.7 mph 18.4 mph N/A   Overcast
1:35 AM 73.4 °F - 62.6 °F 69% 29.74 in 10.0 mi South 11.5 mph 18.4 mph N/A   Overcast
1:55 AM 73.4 °F - 62.6 °F 69% 29.74 in 10.0 mi South 11.5 mph 18.4 mph N/A   Overcast
2:15 AM 73.4 °F - 62.6 °F 69% 29.74 in 10.0 mi South 13.8 mph 19.6 mph N/A   Overcast
2:35 AM 73.4 °F - 62.6 °F 69% 29.73 in 10.0 mi South 11.5 mph - N/A   Overcast
2:55 AM 73.4 °F - 62.6 °F 69% 29.74 in 10.0 mi South 11.5 mph 19.6 mph N/A   Overcast
3:15 AM 71.6 °F - 62.6 °F 73% 29.74 in 10.0 mi SSW 11.5 mph 17.3 mph N/A Rain Light Rain
3:35 AM 71.6 °F - 64.4 °F 78% 29.72 in 7.0 mi SSW 8.1 mph - N/A Rain Rain
3:55 AM 68.0 °F - 64.4 °F 88% 29.74 in 10.0 mi SSW 6.9 mph - N/A   Scattered Clouds
4:15 AM 66.2 °F - 64.4 °F 94% 29.73 in 10.0 mi SSW 4.6 mph - N/A   Mostly Cloudy
4:35 AM 66.2 °F - 64.4 °F 94% 29.74 in 10.0 mi SSW 3.5 mph - N/A   Mostly Cloudy
4:55 AM 66.2 °F - 64.4 °F 94% 29.73 in 10.0 mi South 4.6 mph - N/A Rain Light Rain
5:15 AM 68.0 °F - 64.4 °F 88% 29.72 in 7.0 mi South 6.9 mph - N/A Rain Rain
5:35 AM 66.2 °F - 64.4 °F 94% 29.70 in 10.0 mi SE 9.2 mph - N/A Rain Light Rain
5:55 AM 68.0 °F - 64.4 °F 88% 29.73 in 10.0 mi SW 9.2 mph 13.8 mph N/A   Scattered Clouds
6:15 AM 66.2 °F - 64.4 °F 94% 29.74 in 10.0 mi South 8.1 mph - N/A   Scattered Clouds
6:35 AM 66.2 °F - 64.4 °F 94% 29.73 in 10.0 mi South 5.8 mph - N/A   Mostly Cloudy
6:55 AM 66.2 °F - 64.4 °F 94% 29.73 in 7.0 mi South 9.2 mph - N/A   Scattered Clouds
7:15 AM 68.0 °F - 64.4 °F 88% 29.74 in 7.0 mi SSW 9.2 mph - N/A   Overcast
7:35 AM 68.0 °F - 66.2 °F 94% 29.75 in 7.0 mi SSW 10.4 mph - N/A   Overcast
7:55 AM 68.0 °F - 66.2 °F 94% 29.75 in 7.0 mi SW 10.4 mph - N/A   Overcast
8:15 AM 68.0 °F - 66.2 °F 94% 29.75 in 5.0 mi SW 9.2 mph - N/A   Overcast
8:35 AM 68.0 °F - 66.2 °F 94% 29.75 in 4.0 mi SW 9.2 mph - N/A Rain Light Rain
8:55 AM 68.0 °F - 66.2 °F 94% 29.75 in 7.0 mi SSW 8.1 mph - N/A   Overcast
9:15 AM 69.8 °F - 66.2 °F 88% 29.75 in 10.0 mi SSW 11.5 mph - N/A   Overcast
9:35 AM 69.8 °F - 66.2 °F 88% 29.75 in 10.0 mi SSW 13.8 mph - N/A   Overcast
9:55 AM 71.6 °F - 66.2 °F 83% 29.75 in 10.0 mi SW 10.4 mph - N/A   Overcast
10:15 AM 71.6 °F - 66.2 °F 83% 29.75 in 10.0 mi SW 11.5 mph - N/A   Mostly Cloudy
10:35 AM 71.6 °F - 66.2 °F 83% 29.75 in 10.0 mi SSW 15.0 mph 18.4 mph N/A   Mostly Cloudy
10:55 AM 73.4 °F - 66.2 °F 78% 29.75 in 10.0 mi SW 13.8 mph 19.6 mph N/A   Mostly Cloudy
11:15 AM 73.4 °F - 66.2 °F 78% 29.75 in 10.0 mi SW 12.7 mph 18.4 mph N/A   Scattered Clouds
11:35 AM 73.4 °F - 66.2 °F 78% 29.76 in 10.0 mi WSW 13.8 mph 17.3 mph N/A   Scattered Clouds
11:55 AM 75.2 °F - 66.2 °F 73% 29.76 in 10.0 mi SW 13.8 mph - N/A   Scattered Clouds
12:15 PM 75.2 °F - 64.4 °F 69% 29.76 in 10.0 mi SW 16.1 mph - N/A   Scattered Clouds
12:35 PM 75.2 °F - 66.2 °F 73% 29.76 in 10.0 mi WSW 11.5 mph 20.7 mph N/A   Scattered Clouds
12:55 PM 77.0 °F - 64.4 °F 65% 29.75 in 10.0 mi WSW 13.8 mph 20.7 mph N/A   Scattered Clouds
1:15 PM 78.8 °F - 60.8 °F 54% 29.75 in 10.0 mi SW 15.0 mph 19.6 mph N/A   Clear
1:35 PM 78.8 °F - 60.8 °F 54% 29.75 in 10.0 mi WSW 15.0 mph 23.0 mph N/A   Scattered Clouds
1:55 PM 78.8 °F - 57.2 °F 47% 29.75 in 10.0 mi SW 18.4 mph 24.2 mph N/A   Scattered Clouds
2:15 PM 78.8 °F - 57.2 °F 47% 29.74 in 10.0 mi WSW 19.6 mph - N/A   Scattered Clouds
2:35 PM 80.6 °F 80.3 °F 53.6 °F 39% 29.74 in 10.0 mi SW 16.1 mph 29.9 mph N/A   Scattered Clouds
2:55 PM 80.6 °F 80.8 °F 57.2 °F 45% 29.73 in 10.0 mi West 11.5 mph 23.0 mph N/A   Scattered Clouds
3:15 PM 80.6 °F 80.5 °F 55.4 °F 42% 29.74 in 10.0 mi SW 13.8 mph 25.3 mph N/A   Clear
3:35 PM 80.6 °F 80.3 °F 53.6 °F 39% 29.74 in 10.0 mi WSW 13.8 mph 27.6 mph N/A   Clear
3:55 PM 78.8 °F - 57.2 °F 47% 29.74 in 10.0 mi West 18.4 mph 27.6 mph N/A   Scattered Clouds
4:15 PM 78.8 °F - 55.4 °F 44% 29.75 in 10.0 mi SW 23.0 mph 31.1 mph N/A   Scattered Clouds
4:35 PM 78.8 °F - 55.4 °F 44% 29.75 in 10.0 mi SW 20.7 mph 27.6 mph N/A   Clear
4:55 PM 77.0 °F - 59.0 °F 54% 29.76 in 10.0 mi West 19.6 mph 26.5 mph N/A   Mostly Cloudy
5:15 PM 75.2 °F - 55.4 °F 50% 29.77 in 10.0 mi WSW 23.0 mph 33.4 mph N/A   Scattered Clouds
5:35 PM 75.2 °F - 55.4 °F 50% 29.78 in 10.0 mi WSW 21.9 mph 29.9 mph N/A   Scattered Clouds
5:55 PM 73.4 °F - 55.4 °F 53% 29.78 in 10.0 mi West 19.6 mph 28.8 mph N/A   Scattered Clouds
6:15 PM 71.6 °F - 53.6 °F 53% 29.79 in 10.0 mi West 17.3 mph 31.1 mph N/A   Clear
6:35 PM 71.6 °F - 53.6 °F 53% 29.80 in 10.0 mi West 21.9 mph 25.3 mph N/A   Clear
6:55 PM 69.8 °F - 51.8 °F 53% 29.79 in 10.0 mi West 18.4 mph - N/A   Scattered Clouds
7:15 PM 69.8 °F - 50.0 °F 49% 29.80 in 10.0 mi West 18.4 mph 24.2 mph N/A   Scattered Clouds
7:35 PM 69.8 °F - 51.8 °F 53% 29.80 in 10.0 mi West 11.5 mph - N/A   Clear
7:55 PM 68.0 °F - 51.8 °F 56% 29.80 in 10.0 mi West 12.7 mph 18.4 mph N/A   Scattered Clouds
8:15 PM 68.0 °F - 51.8 °F 56% 29.80 in 10.0 mi West 10.4 mph - N/A   Scattered Clouds
8:35 PM 66.2 °F - 51.8 °F 60% 29.80 in 10.0 mi West 17.3 mph 24.2 mph N/A   Scattered Clouds
8:55 PM 64.4 °F - 51.8 °F 64% 29.81 in 10.0 mi West 12.7 mph 18.4 mph N/A   Clear
9:15 PM 64.4 °F - 51.8 °F 64% 29.83 in 10.0 mi West 9.2 mph - N/A   Clear
9:35 PM 64.4 °F - 51.8 °F 64% 29.84 in 10.0 mi West 17.3 mph 27.6 mph N/A   Clear
9:55 PM 62.6 °F - 50.0 °F 63% 29.85 in 10.0 mi West 19.6 mph 26.5 mph N/A   Clear
10:15 PM 62.6 °F - 48.2 °F 59% 29.86 in 10.0 mi West 13.8 mph 32.2 mph N/A   Clear
10:35 PM 60.8 °F - 48.2 °F 63% 29.87 in 10.0 mi West 15.0 mph 23.0 mph N/A   Scattered Clouds
10:55 PM 60.8 °F - 44.6 °F 55% 29.88 in 10.0 mi West 18.4 mph 24.2 mph N/A   Scattered Clouds
11:15 PM 59.0 °F - 44.6 °F 59% 29.88 in 10.0 mi West 19.6 mph 28.8 mph N/A   Scattered Clouds
11:35 PM 57.2 °F - 41.0 °F 55% 29.89 in 10.0 mi West 12.7 mph 27.6 mph N/A   Clear
11:55 PM 57.2 °F - 39.2 °F 51% 29.89 in 10.0 mi WNW 13.8 mph 27.6 mph N/A   Clear